Terminal Aerodrome Forecast
Issued by NWS Wakefield, VA

Home | Current Version | Previous Version | Text Only | Print | Product List | Glossary On
Versions: 1 2 3 4 5 6 7 8 9 10 11 12 13 14 15 16 17 18 19 20 21
289
FTUS41 KAKQ 270524
TAFRIC
TAF
KRIC 270524Z 2706/2806 00000KT P6SM SKC
     FM271300 21007KT P6SM SCT060
     FM271800 21009KT P6SM BKN060
     FM280000 19003KT P6SM BKN060=

USA.gov is the U.S. government's official web portal to all federal, state and local government web resources and services.